• Join FlightAware (Why Join?)
  • Login
  • US Flag 
07:41PM EST


 

Airport Tracker/Info


-or-


 

Live Flight TrackerFlight Track Log ✈ SWA276 ✈ 24-Apr-2013 ✈ KOAK - KLAS

Flight Track Log - Related Links

Times and Time Zones

All times are in EDT time to prevent confusion due to time zone crossing. See the SWA276 flight status page for this flight to view local times or setup timezone preferences in your user account.

Time Position Orientation Groundspeed Altitude Reporting Facility
EDT Latitude Longitude Course Direction KTS MPH feet Rate Location/Type
03:30PM 37.7267 -122.2517 150° Southeast 169 194 1,700  Level Oakland Center
03:31PM 37.7433 -122.3222 287° West 218 251 4,600 2,880 Climbing Oakland Center
03:32PM 37.7011 -122.3775 226° Southwest 248 285 7,700 2,640 Climbing Oakland Center
03:34PM 37.6281 -122.4211 205° Southwest 287 330 10,000 1,800 Climbing Oakland Center
03:35PM 37.5375 -122.4361 187° South 326 375 11,400 2,400 Climbing Oakland Center
03:36PM 37.2858 -122.3303 150° Southeast  Level FlightAware Approximate
03:36PM 37.4503 -122.4000 162° South 349 402 15,000  Level Oakland Center
03:37PM 37.4211 -122.2789 107° East 368 423 18,400 2,880 Climbing Oakland Center
03:38PM 37.3939 -122.1497 105° East 381 438 21,000 2,640 Climbing Oakland Center
03:39PM 37.3664 -122.0125 104° East 402 463 23,900 2,760 Climbing Oakland Center
03:40PM 37.3303 -121.8419 105° East 420 483 26,700 2,340 Climbing Oakland Center
03:41PM 37.3014 -121.7017 104° East 435 501 28,800 2,280 Climbing Oakland Center
03:42PM 37.2700 -121.5542 105° East 439 505 31,400 2,040 Climbing Oakland Center
03:43PM 37.2383 -121.4083 105° East 436 502 33,000 780 Climbing Oakland Center
03:44PM 37.2064 -121.2583 105° East 444 511 33,000  Level Oakland Center
03:45PM 37.1739 -121.1061 105° East 452 520 33,000  Level Oakland Center
03:46PM 37.1347 -120.9247 105° East 452 520 33,000  Level Oakland Center
03:47PM 37.0997 -120.7758 106° East 453 521 33,000  Level Oakland Center
03:48PM 37.0672 -120.6258 105° East 462 532 33,000  Level Oakland Center
03:49PM 37.0581 -120.4722 94° East 453 521 33,000  Level Oakland Center
03:50PM 37.0786 -120.3169 81° East 453 521 33,000  Level Oakland Center
03:51PM 37.0978 -120.1600 81° East 458 527 33,000  Level Oakland Center
03:52PM 37.1189 -120.0011 80° East 462 532 33,000  Level Oakland Center
03:53PM 37.1422 -119.8117 81° East 465 535 33,000  Level Oakland Center
03:54PM 37.1628 -119.6514 81° East 467 537 33,000  Level Oakland Center
03:55PM 37.1833 -119.4900 81° East 468 539 33,000  Level Oakland Center
03:56PM 37.2028 -119.3283 81° East 470 541 33,000  Level Oakland Center
03:57PM 37.2219 -119.1667 81° East 468 539 33,000  Level Oakland Center
03:58PM 37.2417 -119.0031 81° East 473 544 33,000  Level Oakland Center
03:59PM 37.2611 -118.8411 81° East 472 543 33,000  Level Oakland Center
04:00PM 37.2761 -118.6747 83° East 478 550 33,000  Level Oakland Center
04:01PM 37.2939 -118.5097 82° East 480 552 33,000  Level Oakland Center
04:02PM 37.3183 -118.3300 80° East 472 543 33,000  Level Oakland Center
04:03PM 37.3364 -118.1661 82° East 474 545 33,000  Level Oakland Center
04:04PM 37.3544 -117.9997 82° East 481 554 33,000  Level Oakland Center
04:06PM 37.3686 -117.8379 84° East  Level FlightAware Approximate
04:06PM 37.3931 -117.6369 84° East 477 549 33,000  Level Oakland Center
04:07PM 37.4108 -117.4711 82° East 480 552 33,000  Level Oakland Center
04:08PM 37.4153 -117.3058 88° East 484 557 33,000  Level Oakland Center
04:09PM 37.3272 -117.1897 134° Southeast 470 541 33,000  Level Oakland Center
04:10PM 37.2208 -117.1022 147° Southeast 461 531 33,000  Level Oakland Center
04:11PM 37.1136 -117.0111 146° Southeast 462 532 33,000  Level Oakland Center
04:12PM 37.0097 -116.9244 146° Southeast 453 521 33,000  Level Oakland Center
04:13PM 36.9039 -116.8342 146° Southeast 456 525 33,000  Level Oakland Center
04:14PM 36.7828 -116.7217 143° Southeast 456 525 33,000 -1,320 Level Oakland Center
04:16PM 36.6983 -116.6028 132° Southeast 459 528 30,400 -2,460 Descending Oakland Center
04:16PM 36.6828 -116.5753 125° Southeast 457 526 29,900 -2,340 Descending Los Angeles Center
04:17PM 36.6000 -116.4608 132° Southeast 449 517 27,400 -2,520 Descending Los Angeles Center
04:18PM 36.5147 -116.3389 131° Southeast 434 499 24,700 -2,160 Descending Los Angeles Center
04:19PM 36.4386 -116.2311 131° Southeast 418 481 23,000 -840 Descending Los Angeles Center
04:20PM 36.3592 -116.1222 132° Southeast 390 449 23,000  Level Los Angeles Center
04:21PM 36.3103 -116.0556 132° Southeast 380 437 23,000 -420 Level Los Angeles Center
04:21PM 36.2872 -116.0172 127° Southeast 378 435 22,600 -2,760 Descending Los Angeles Center
04:21PM 36.2467 -115.9669 135° Southeast 377 434 20,500 -4,500 Descending Los Angeles Center
04:22PM 36.2147 -115.9169 128° Southeast 396 456 18,000 -3,960 Descending Los Angeles Center
04:23PM 36.1794 -115.8422 120° Southeast 407 468 16,100 -2,040 Descending Los Angeles Center
04:23PM 36.1642 -115.7903 110° East 409 471 15,900 -240 Descending Los Angeles Center
04:24PM 36.1436 -115.7339 114° Southeast 367 422 15,900 60 Level Los Angeles Center
04:24PM 36.1297 -115.6794 108° East 318 366 16,000 -240 Climbing Los Angeles Center
04:25PM 36.1064 -115.6103 113° Southeast 296 341 15,600 -480 Descending Los Angeles Center
04:26PM 36.0831 -115.5408 113° Southeast 286 329 15,300 -480 Descending Los Angeles Center
04:26PM 36.0686 -115.4897 109° East 281 323 15,000 -720 Descending Los Angeles Center
04:27PM 36.0517 -115.4447 115° Southeast 281 323 14,500 -1,080 Descending Los Angeles Center
04:27PM 36.0394 -115.4017 109° East 279 321 13,900 -1,320 Descending Los Angeles Center
04:28PM 36.0258 -115.3550 110° East 288 331 13,200 -1,080 Descending Los Angeles Center
04:28PM 36.0261 -115.3108 90° East 276 318 12,800 -720 Descending Los Angeles Center
04:29PM 36.0222 -115.2578 95° East 261 300 12,500 -540 Descending Los Angeles Center
04:29PM 36.0208 -115.2256 93° East 263 303 12,300 -840 Descending Los Angeles Center
04:30PM 36.0172 -115.1850 96° East 224 258 11,700 -1,020 Descending Los Angeles Center
04:30PM 36.0164 -115.1533 92° East 239 275 11,300 -1,200 Descending Los Angeles Center
04:31PM 36.0011 -115.1211 120° Southeast 203 234 10,500 -1,380 Descending Los Angeles Center
04:31PM 35.9814 -115.1225 183° South 218 251 9,900 -1,500 Descending Los Angeles Center
04:32PM 35.9492 -115.1408 205° Southwest 193 222 9,000 -1,260 Descending Los Angeles Center
04:33PM 35.9203 -115.1564 204° Southwest 204 235 8,400 -1,140 Descending Los Angeles Center
04:34PM 35.9197 -115.2158 269° West 203 234 7,000 -1,200 Descending Los Angeles Center
04:35PM 35.9625 -115.2386 337° Northwest 182 209 5,900 -1,020 Descending Los Angeles Center
04:36PM 35.9997 -115.2089 33° Northeast 170 196 4,900 -1,440 Descending Los Angeles Center
04:37PM 36.0514 -115.1842 21° North 156 180 2,800 -1,320 Descending Los Angeles Center
04:38PM 36.0914 -115.1608 25° Northeast 136 157 2,000 -780 Descending Los Angeles Center
04:40PM 36.0801 -115.1523 219° Southwest  Level Estimated